sensor_id;sensor_type;location;lat;lon;timestamp;temperature;humidity
22442;DHT22;11388;54.456;9.752;2023-10-13T06:34:24;14.40;99.90
22442;DHT22;11388;54.456;9.752;2023-10-13T06:37:04;14.40;99.90
22442;DHT22;11388;54.456;9.752;2023-10-13T06:39:51;14.50;99.90
22442;DHT22;11388;54.456;9.752;2023-10-13T06:42:18;14.60;99.90
22442;DHT22;11388;54.456;9.752;2023-10-13T06:44:47;14.60;99.90
22442;DHT22;11388;54.456;9.752;2023-10-13T10:26:52;17.20;99.90
22442;DHT22;11388;54.456;9.752;2023-10-13T10:36:07;17.30;99.90
22442;DHT22;11388;54.456;9.752;2023-10-13T10:39:11;17.20;99.90
22442;DHT22;11388;54.456;9.752;2023-10-13T10:41:40;17.20;99.90
22442;DHT22;11388;54.456;9.752;2023-10-13T10:44:23;17.10;99.90
22442;DHT22;11388;54.456;9.752;2023-10-13T10:47:21;17.20;99.90
22442;DHT22;11388;54.456;9.752;2023-10-13T10:50:08;17.30;99.90
22442;DHT22;11388;54.456;9.752;2023-10-13T10:56:06;17.30;99.90
22442;DHT22;11388;54.456;9.752;2023-10-13T11:01:53;17.30;99.90
22442;DHT22;11388;54.456;9.752;2023-10-13T11:04:30;17.30;99.90
22442;DHT22;11388;54.456;9.752;2023-10-13T11:17:22;17.30;99.90
22442;DHT22;11388;54.456;9.752;2023-10-13T11:20:13;17.30;99.90
22442;DHT22;11388;54.456;9.752;2023-10-13T11:22:52;17.30;99.90
22442;DHT22;11388;54.456;9.752;2023-10-13T11:25:31;17.20;99.90
22442;DHT22;11388;54.456;9.752;2023-10-13T11:28:23;17.30;99.90
22442;DHT22;11388;54.456;9.752;2023-10-13T11:31:30;17.30;99.90
22442;DHT22;11388;54.456;9.752;2023-10-13T11:33:58;17.30;99.90
22442;DHT22;11388;54.456;9.752;2023-10-13T11:36:27;17.20;99.90
22442;DHT22;11388;54.456;9.752;2023-10-13T11:38:58;17.30;99.90
22442;DHT22;11388;54.456;9.752;2023-10-13T11:41:30;17.30;99.90
22442;DHT22;11388;54.456;9.752;2023-10-13T11:44:23;17.30;99.90
22442;DHT22;11388;54.456;9.752;2023-10-13T11:55:27;17.40;99.90
22442;DHT22;11388;54.456;9.752;2023-10-13T11:57:52;17.60;99.90
22442;DHT22;11388;54.456;9.752;2023-10-13T12:00:18;17.60;99.90
22442;DHT22;11388;54.456;9.752;2023-10-13T12:03:03;17.60;99.90
22442;DHT22;11388;54.456;9.752;2023-10-13T12:05:47;17.60;99.90
22442;DHT22;11388;54.456;9.752;2023-10-13T12:08:36;17.70;99.90
22442;DHT22;11388;54.456;9.752;2023-10-13T12:11:19;17.70;99.90
22442;DHT22;11388;54.456;9.752;2023-10-13T12:17:09;18.00;99.90
22442;DHT22;11388;54.456;9.752;2023-10-13T12:20:03;18.30;99.90
22442;DHT22;11388;54.456;9.752;2023-10-13T12:22:56;18.40;99.90
22442;DHT22;11388;54.456;9.752;2023-10-13T12:25:24;18.50;99.90
22442;DHT22;11388;54.456;9.752;2023-10-13T12:27:52;18.50;99.90
22442;DHT22;11388;54.456;9.752;2023-10-13T12:30:28;18.60;99.90
22442;DHT22;11388;54.456;9.752;2023-10-13T12:33:25;18.60;99.90
22442;DHT22;11388;54.456;9.752;2023-10-13T12:36:07;18.60;99.90
22442;DHT22;11388;54.456;9.752;2023-10-13T12:38:48;18.70;99.90
22442;DHT22;11388;54.456;9.752;2023-10-13T12:41:32;18.70;99.90
22442;DHT22;11388;54.456;9.752;2023-10-13T12:44:19;18.80;99.90
22442;DHT22;11388;54.456;9.752;2023-10-13T12:47:06;18.90;99.90
22442;DHT22;11388;54.456;9.752;2023-10-13T12:50:02;18.80;99.90
22442;DHT22;11388;54.456;9.752;2023-10-13T12:52:57;18.90;99.90
22442;DHT22;11388;54.456;9.752;2023-10-13T12:55:26;18.90;99.90
22442;DHT22;11388;54.456;9.752;2023-10-13T12:57:52;19.00;99.90
22442;DHT22;11388;54.456;9.752;2023-10-13T13:00:58;19.10;99.90
22442;DHT22;11388;54.456;9.752;2023-10-13T13:03:51;19.20;99.90
22442;DHT22;11388;54.456;9.752;2023-10-13T13:06:24;19.30;99.90
22442;DHT22;11388;54.456;9.752;2023-10-13T13:08:59;19.40;99.90
